Time;durP1;ratioP1;P1;durP2;ratioP2;P2;SDS_P1;SDS_P2;PMS_P1;PMS_P2;Temp;Humidity;BMP_temperature;BMP_pressure;BME280_temperature;BME280_humidity;BME280_pressure;Samples;Min_cycle;Max_cycle;Signal;HPM_P1;HPM_P2
2021/11/19 00:02:29;;;;;;;0.00;0.00;;;;;16.30;100415.00;;;;5088759;28;20052;-81
2021/11/19 00:04:59;;;;;;;0.00;0.00;;;;;16.40;100414.00;;;;5089691;28;20040;-82
2021/11/19 00:07:31;;;;;;;0.08;0.08;;;;;16.40;100426.00;;;;5089184;28;20032;-82
2021/11/19 00:10:01;;;;;;;0.00;0.00;;;;;16.40;100435.00;;;;5088594;28;20407;-80
2021/11/19 00:12:30;;;;;;;0.00;0.00;;;;;16.30;100422.00;;;;5088025;28;20044;-80
2021/11/19 00:15:01;;;;;;;0.00;0.00;;;;;16.30;100415.00;;;;5088527;28;20040;-81
2021/11/19 00:17:30;;;;;;;0.00;0.00;;;;;16.30;100428.00;;;;5089017;28;20046;-78
2021/11/19 00:20:00;;;;;;;4.80;0.20;;;;;16.30;100445.00;;;;5087808;28;20920;-81
2021/11/19 00:22:29;;;;;;;1.48;0.80;;;;;16.30;100420.00;;;;5088311;28;20051;-78
2021/11/19 00:24:59;;;;;;;3.92;0.35;;;;;16.30;100433.00;;;;5087222;28;20055;-80
2021/11/19 00:27:29;;;;;;;0.00;0.00;;;;;16.30;100447.00;;;;5089388;28;20047;-84
2021/11/19 00:29:59;;;;;;;0.00;0.00;;;;;16.30;100435.00;;;;5088039;28;20503;-84
2021/11/19 00:32:28;;;;;;;0.00;0.00;;;;;16.20;100427.00;;;;5088089;28;20043;-82
2021/11/19 00:34:58;;;;;;;0.00;0.00;;;;;16.20;100434.00;;;;5089009;28;20123;-79
2021/11/19 00:37:28;;;;;;;3.47;0.25;;;;;16.10;100426.00;;;;5087793;28;20058;-81
2021/11/19 00:39:57;;;;;;;0.00;0.00;;;;;16.10;100430.00;;;;5088529;28;20135;-81
2021/11/19 00:42:28;;;;;;;0.00;0.00;;;;;16.10;100439.00;;;;5090130;28;20078;-80
2021/11/19 00:44:57;;;;;;;0.00;0.00;;;;;16.10;100441.00;;;;5090206;28;21142;-84
2021/11/19 00:47:27;;;;;;;0.00;0.00;;;;;16.20;100431.00;;;;5087579;28;20490;-84
2021/11/19 00:49:59;;;;;;;0.00;0.00;;;;;16.20;100429.00;;;;5087099;28;20537;-83
2021/11/19 00:52:29;;;;;;;0.20;0.20;;;;;16.20;100446.00;;;;5088274;28;20062;-83
2021/11/19 00:54:59;;;;;;;9.55;0.47;;;;;16.20;100449.00;;;;5090827;28;20047;-79
2021/11/19 00:57:28;;;;;;;0.20;0.10;;;;;16.20;100444.00;;;;5090735;28;20056;-80
2021/11/19 00:59:58;;;;;;;0.00;0.00;;;;;16.10;100440.00;;;;5089646;28;20174;-81
2021/11/19 01:02:27;;;;;;;0.00;0.00;;;;;16.10;100451.00;;;;5091096;28;20135;-81
2021/11/19 01:05:01;;;;;;;2.15;0.38;;;;;16.10;100449.00;;;;5088160;28;20079;-80
2021/11/19 01:07:31;;;;;;;0.00;0.00;;;;;16.10;100442.00;;;;5088461;28;20167;-80
2021/11/19 01:10:10;;;;;;;0.10;0.10;;;;;16.20;100444.00;;;;5071868;28;20538;-81
2021/11/19 01:12:42;;;;;;;0.05;0.05;;;;;16.20;100451.00;;;;5087695;28;20097;-79
2021/11/19 01:15:42;;;;;;;0.00;0.00;;;;;16.20;100451.00;;;;5088781;28;20058;-79
2021/11/19 01:18:18;;;;;;;0.00;0.00;;;;;16.20;100454.00;;;;5079771;28;20493;-80
2021/11/19 01:20:58;;;;;;;0.00;0.00;;;;;16.20;100459.00;;;;5071062;28;20110;-85
2021/11/19 01:23:30;;;;;;;0.00;0.00;;;;;16.30;100455.00;;;;5085886;28;20050;-79
2021/11/19 01:26:11;;;;;;;0.00;0.00;;;;;16.20;100451.00;;;;5087570;28;20155;-81
2021/11/19 01:28:42;;;;;;;0.00;0.00;;;;;16.20;100449.00;;;;5088236;28;20147;-82
2021/11/19 01:31:17;;;;;;;0.00;0.00;;;;;16.30;100447.00;;;;5087334;28;20397;-82
2021/11/19 01:33:51;;;;;;;0.00;0.00;;;;;16.30;100448.00;;;;5085527;28;20408;-85
2021/11/19 01:36:31;;;;;;;0.15;0.15;;;;;16.20;100452.00;;;;5070921;28;20051;-82
2021/11/19 01:39:14;;;;;;;0.00;0.00;;;;;16.20;100448.00;;;;5084845;28;20044;-82
2021/11/19 01:42:03;;;;;;;0.20;0.20;;;;;16.20;100448.00;;;;5086113;28;20044;-81
2021/11/19 01:44:37;;;;;;;0.47;0.30;;;;;16.30;100456.00;;;;5088549;28;20056;-82
2021/11/19 01:47:10;;;;;;;0.00;0.00;;;;;16.30;100448.00;;;;5093298;28;20048;-80
2021/11/19 01:49:41;;;;;;;0.00;0.00;;;;;16.30;100452.00;;;;5086526;28;20044;-81
2021/11/19 01:52:15;;;;;;;0.20;0.17;;;;;16.20;100466.00;;;;5070519;28;20465;-82
2021/11/19 01:54:53;;;;;;;0.00;0.00;;;;;16.30;100455.00;;;;5086644;28;20048;-81
2021/11/19 01:57:37;;;;;;;0.00;0.00;;;;;16.30;100462.00;;;;5086257;28;20044;-83
2021/11/19 02:00:44;;;;;;;1.45;0.60;;;;;16.30;100453.00;;;;5086386;28;20101;-84
2021/11/19 02:03:23;;;;;;;0.00;0.00;;;;;16.40;100440.00;;;;5065704;28;20055;-82
2021/11/19 02:06:02;;;;;;;0.00;0.00;;;;;16.30;100453.00;;;;5086109;28;20051;-83
2021/11/19 02:08:37;;;;;;;0.00;0.00;;;;;16.30;100457.00;;;;5086707;28;20044;-82
2021/11/19 02:11:34;;;;;;;0.00;0.00;;;;;16.30;100453.00;;;;5086569;28;20055;-78
2021/11/19 02:14:07;;;;;;;0.00;0.00;;;;;16.30;100457.00;;;;5069355;28;20055;-79
2021/11/19 02:16:42;;;;;;;0.00;0.00;;;;;16.20;100456.00;;;;5087104;28;20578;-79
2021/11/19 02:19:46;;;;;;;0.05;0.00;;;;;16.30;100443.00;;;;5085893;28;20078;-79
2021/11/19 02:22:26;;;;;;;0.00;0.00;;;;;16.30;100448.00;;;;5083641;28;20044;-79
2021/11/19 02:25:19;;;;;;;0.00;0.00;;;;;16.30;100438.00;;;;5085853;28;21075;-83
2021/11/19 02:27:57;;;;;;;0.00;0.00;;;;;16.30;100429.00;;;;5086050;28;20517;-82
2021/11/19 02:30:35;;;;;;;0.00;0.00;;;;;16.30;100428.00;;;;5085617;28;20043;-81
2021/11/19 02:33:09;;;;;;;0.00;0.00;;;;;16.30;100421.00;;;;5086384;28;20506;-79
2021/11/19 02:35:54;;;;;;;0.00;0.00;;;;;16.30;100417.00;;;;5085310;28;20048;-84
2021/11/19 02:38:53;;;;;;;0.03;0.03;;;;;16.30;100406.00;;;;5085605;28;20044;-82
2021/11/19 02:41:27;;;;;;;0.00;0.00;;;;;16.30;100425.00;;;;5086599;28;20075;-80
2021/11/19 02:44:05;;;;;;;0.00;0.00;;;;;16.30;100413.00;;;;5090105;28;20044;-85
2021/11/19 02:46:45;;;;;;;0.00;0.00;;;;;16.30;100414.00;;;;5089221;28;20050;-81
2021/11/19 02:49:16;;;;;;;0.00;0.00;;;;;16.30;100403.00;;;;5088990;28;20605;-84
2021/11/19 02:51:47;;;;;;;0.00;0.00;;;;;16.30;100421.00;;;;5089653;28;20044;-82
2021/11/19 02:54:25;;;;;;;0.00;0.00;;;;;16.30;100403.00;;;;5087072;28;20058;-79
2021/11/19 02:56:56;;;;;;;0.00;0.00;;;;;16.30;100412.00;;;;5088381;28;20052;-80
2021/11/19 02:59:27;;;;;;;0.00;0.00;;;;;16.20;100418.00;;;;5087704;28;20139;-81
2021/11/19 03:02:12;;;;;;;0.00;0.00;;;;;16.20;100428.00;;;;5088631;28;20339;-79
2021/11/19 03:05:00;;;;;;;0.00;0.00;;;;;16.20;100412.00;;;;5072514;28;20056;-83
2021/11/19 03:07:30;;;;;;;0.05;0.05;;;;;16.20;100418.00;;;;5072458;28;20044;-79
2021/11/19 03:10:13;;;;;;;0.00;0.00;;;;;16.10;100416.00;;;;5088499;28;20704;-83
2021/11/19 03:12:43;;;;;;;0.00;0.00;;;;;16.10;100414.00;;;;5088427;28;20525;-80
2021/11/19 03:15:22;;;;;;;0.00;0.00;;;;;16.10;100423.00;;;;5088945;28;20047;-83
2021/11/19 03:17:52;;;;;;;0.00;0.00;;;;;16.10;100413.00;;;;5088424;28;20059;-84
2021/11/19 03:20:23;;;;;;;0.00;0.00;;;;;16.00;100404.00;;;;5088212;28;20048;-87
2021/11/19 03:22:55;;;;;;;0.00;0.00;;;;;16.00;100413.00;;;;5088302;28;20135;-82
2021/11/19 03:25:28;;;;;;;0.15;0.15;;;;;16.00;100400.00;;;;5088114;28;20056;-86
2021/11/19 03:28:02;;;;;;;0.00;0.00;;;;;16.00;100413.00;;;;5089101;28;20048;-82
2021/11/19 03:30:37;;;;;;;0.00;0.00;;;;;16.00;100413.00;;;;5087987;28;20044;-85
2021/11/19 03:33:11;;;;;;;0.00;0.00;;;;;15.90;100415.00;;;;5087849;28;20057;-83
2021/11/19 03:35:42;;;;;;;0.00;0.00;;;;;15.90;100399.00;;;;5087699;28;20614;-79
2021/11/19 03:38:12;;;;;;;0.00;0.00;;;;;15.90;100406.00;;;;5087881;28;20050;-80
2021/11/19 03:40:45;;;;;;;0.00;0.00;;;;;15.90;100395.00;;;;5088188;28;20491;-84
2021/11/19 03:43:24;;;;;;;0.00;0.00;;;;;15.90;100391.00;;;;5088297;28;20043;-84
2021/11/19 03:46:00;;;;;;;0.00;0.00;;;;;15.90;100387.00;;;;5088367;28;20090;-81
2021/11/19 03:48:30;;;;;;;0.00;0.00;;;;;16.00;100390.00;;;;5088262;28;20051;-80
2021/11/19 03:51:03;;;;;;;0.00;0.00;;;;;16.00;100399.00;;;;5088459;28;20052;-83
2021/11/19 03:53:35;;;;;;;0.00;0.00;;;;;16.00;100385.00;;;;5088701;28;20152;-81
2021/11/19 03:56:05;;;;;;;0.00;0.00;;;;;16.00;100393.00;;;;5087993;28;20056;-86
2021/11/19 03:58:38;;;;;;;0.00;0.00;;;;;16.00;100401.00;;;;5087767;28;20063;-82
2021/11/19 04:01:24;;;;;;;0.00;0.00;;;;;16.00;100381.00;;;;5088037;28;20119;-83
2021/11/19 04:03:59;;;;;;;0.00;0.00;;;;;16.10;100374.00;;;;5088047;28;20136;-84
2021/11/19 04:06:29;;;;;;;0.00;0.00;;;;;16.10;100376.00;;;;5087791;28;20052;-83
2021/11/19 04:08:58;;;;;;;0.00;0.00;;;;;16.10;100368.00;;;;5087882;28;20063;-84
2021/11/19 04:11:28;;;;;;;0.00;0.00;;;;;16.10;100364.00;;;;5089116;28;20044;-84
2021/11/19 04:13:58;;;;;;;0.00;0.00;;;;;16.10;100372.00;;;;5087663;28;20048;-83
2021/11/19 04:16:32;;;;;;;0.00;0.00;;;;;16.00;100373.00;;;;5088333;28;20040;-82
2021/11/19 04:19:05;;;;;;;0.00;0.00;;;;;16.00;100374.00;;;;5087447;28;20056;-79
2021/11/19 04:21:36;;;;;;;0.00;0.00;;;;;16.10;100363.00;;;;5087785;28;20147;-85
2021/11/19 04:24:10;;;;;;;0.00;0.00;;;;;16.10;100372.00;;;;5087821;28;20048;-84
2021/11/19 04:26:40;;;;;;;0.00;0.00;;;;;16.10;100354.00;;;;5088081;28;20510;-82
2021/11/19 04:29:10;;;;;;;0.00;0.00;;;;;16.10;100354.00;;;;5089715;28;20503;-80
2021/11/19 04:32:03;;;;;;;0.00;0.00;;;;;16.10;100367.00;;;;5095303;28;20055;-82
2021/11/19 04:34:33;;;;;;;0.00;0.00;;;;;16.00;100365.00;;;;5087967;28;20048;-84
2021/11/19 04:37:03;;;;;;;0.00;0.00;;;;;16.00;100355.00;;;;5088865;28;20040;-79
2021/11/19 04:39:34;;;;;;;0.00;0.00;;;;;16.00;100360.00;;;;5087318;28;20047;-85
2021/11/19 04:42:04;;;;;;;0.00;0.00;;;;;16.00;100347.00;;;;5089944;28;20040;-80
2021/11/19 04:44:38;;;;;;;0.00;0.00;;;;;16.00;100358.00;;;;5087653;28;20531;-81
2021/11/19 04:47:10;;;;;;;0.00;0.00;;;;;16.10;100352.00;;;;5087431;28;20048;-83
2021/11/19 04:49:40;;;;;;;0.00;0.00;;;;;16.10;100366.00;;;;5088205;28;20055;-82
2021/11/19 04:52:11;;;;;;;0.00;0.00;;;;;16.00;100351.00;;;;5086585;28;20097;-82
2021/11/19 04:54:44;;;;;;;0.00;0.00;;;;;16.00;100344.00;;;;5087606;28;20426;-81
2021/11/19 04:57:15;;;;;;;0.00;0.00;;;;;16.00;100353.00;;;;5086945;28;20059;-83
2021/11/19 04:59:46;;;;;;;0.00;0.00;;;;;16.00;100342.00;;;;5087970;28;20052;-82
2021/11/19 05:02:20;;;;;;;0.00;0.00;;;;;16.00;100344.00;;;;5087831;28;20418;-85
2021/11/19 05:05:03;;;;;;;0.00;0.00;;;;;16.00;100352.00;;;;5086661;28;20595;-82
2021/11/19 05:07:36;;;;;;;0.00;0.00;;;;;16.00;100369.00;;;;5087154;28;20079;-85
2021/11/19 05:10:06;;;;;;;0.00;0.00;;;;;16.00;100347.00;;;;5086721;28;20139;-82
2021/11/19 05:12:42;;;;;;;0.00;0.00;;;;;16.00;100349.00;;;;5089697;28;20048;-83
2021/11/19 05:15:13;;;;;;;0.00;0.00;;;;;15.90;100345.00;;;;5093922;28;20058;-80
2021/11/19 05:17:44;;;;;;;0.00;0.00;;;;;16.00;100335.00;;;;5096542;28;20082;-80
2021/11/19 05:20:17;;;;;;;0.00;0.00;;;;;15.90;100346.00;;;;5098983;28;20821;-80
2021/11/19 05:22:50;;;;;;;0.00;0.00;;;;;16.00;100333.00;;;;5098645;28;20048;-81
2021/11/19 05:25:24;;;;;;;0.00;0.00;;;;;16.00;100354.00;;;;5094391;28;20056;-83
2021/11/19 05:27:54;;;;;;;0.00;0.00;;;;;16.00;100339.00;;;;5086739;28;20048;-80
2021/11/19 05:30:24;;;;;;;0.00;0.00;;;;;15.90;100346.00;;;;5076027;28;20052;-78
2021/11/19 05:33:04;;;;;;;0.00;0.00;;;;;15.90;100339.00;;;;5086478;28;20047;-81
2021/11/19 05:35:34;;;;;;;0.00;0.00;;;;;15.90;100351.00;;;;5086857;28;20093;-83
2021/11/19 05:38:07;;;;;;;0.00;0.00;;;;;15.90;100349.00;;;;5086568;28;20059;-81
2021/11/19 05:40:37;;;;;;;0.00;0.00;;;;;15.90;100366.00;;;;5086208;28;20457;-79
2021/11/19 05:43:08;;;;;;;0.00;0.00;;;;;15.90;100375.00;;;;5088202;28;20074;-82
2021/11/19 05:45:55;;;;;;;0.00;0.00;;;;;15.90;100367.00;;;;5088534;28;20067;-82
2021/11/19 05:48:43;;;;;;;0.00;0.00;;;;;15.90;100357.00;;;;5086157;28;20044;-82
2021/11/19 05:51:14;;;;;;;0.00;0.00;;;;;15.90;100351.00;;;;5086266;28;20047;-84
2021/11/19 05:53:46;;;;;;;0.00;0.00;;;;;15.90;100369.00;;;;5086529;28;20082;-83
2021/11/19 05:56:21;;;;;;;0.00;0.00;;;;;15.90;100361.00;;;;5085784;28;20549;-84
2021/11/19 05:58:51;;;;;;;0.00;0.00;;;;;15.90;100371.00;;;;5086173;28;20057;-83
2021/11/19 06:01:38;;;;;;;0.00;0.00;;;;;15.90;100374.00;;;;5087057;28;20078;-82
2021/11/19 06:04:11;;;;;;;0.00;0.00;;;;;15.80;100367.00;;;;5085410;28;20044;-84
2021/11/19 06:06:51;;;;;;;0.00;0.00;;;;;15.80;100356.00;;;;5085336;28;20058;-83
2021/11/19 06:09:31;;;;;;;0.00;0.00;;;;;15.80;100355.00;;;;5085937;28;20070;-83
2021/11/19 06:12:23;;;;;;;0.00;0.00;;;;;15.90;100366.00;;;;5085633;28;20048;-80
2021/11/19 06:14:57;;;;;;;0.00;0.00;;;;;15.90;100360.00;;;;5086946;28;20044;-80
2021/11/19 06:17:40;;;;;;;0.00;0.00;;;;;15.90;100372.00;;;;5088588;28;20105;-80
2021/11/19 06:20:44;;;;;;;0.00;0.00;;;;;15.90;100367.00;;;;5089563;28;20079;-80
2021/11/19 06:23:31;;;;;;;0.00;0.00;;;;;15.90;100374.00;;;;5069228;28;20077;-80
2021/11/19 06:26:02;;;;;;;0.00;0.00;;;;;15.90;100369.00;;;;5089807;28;20036;-82
2021/11/19 06:28:41;;;;;;;0.00;0.00;;;;;15.90;100352.00;;;;5089620;28;20545;-82
2021/11/19 06:31:14;;;;;;;0.00;0.00;;;;;15.90;100373.00;;;;5089694;28;20143;-86
2021/11/19 06:33:45;;;;;;;0.00;0.00;;;;;15.80;100369.00;;;;5090802;28;20058;-80
2021/11/19 06:36:16;;;;;;;0.00;0.00;;;;;15.90;100377.00;;;;5090494;28;20051;-80
2021/11/19 06:38:48;;;;;;;0.00;0.00;;;;;15.90;100362.00;;;;5090202;28;20048;-82
2021/11/19 06:41:20;;;;;;;0.00;0.00;;;;;15.90;100377.00;;;;5090160;28;20499;-83
2021/11/19 06:44:11;;;;;;;0.00;0.00;;;;;15.90;100365.00;;;;5090113;28;20055;-79
2021/11/19 06:47:01;;;;;;;0.00;0.00;;;;;15.80;100381.00;;;;5089666;28;20047;-85
2021/11/19 06:49:57;;;;;;;0.00;0.00;;;;;15.90;100384.00;;;;5089162;28;20931;-83
2021/11/19 06:52:46;;;;;;;0.00;0.00;;;;;15.90;100376.00;;;;5091241;28;20048;-82
2021/11/19 06:55:19;;;;;;;0.00;0.00;;;;;15.90;100383.00;;;;5090639;28;20106;-80
2021/11/19 06:58:17;;;;;;;0.00;0.00;;;;;15.90;100385.00;;;;5089458;28;20180;-80
2021/11/19 07:00:47;;;;;;;0.00;0.00;;;;;15.90;100391.00;;;;5089672;28;20174;-80
2021/11/19 07:03:17;;;;;;;0.00;0.00;;;;;15.90;100383.00;;;;5089152;28;20051;-80
2021/11/19 07:05:47;;;;;;;0.00;0.00;;;;;15.90;100367.00;;;;5089624;28;20495;-83
2021/11/19 07:08:19;;;;;;;0.00;0.00;;;;;15.90;100396.00;;;;5088954;28;20139;-83
2021/11/19 07:10:58;;;;;;;0.00;0.00;;;;;15.90;100379.00;;;;5088514;28;20055;-82
2021/11/19 07:13:31;;;;;;;0.00;0.00;;;;;15.90;100386.00;;;;5089154;28;20643;-83
2021/11/19 07:16:00;;;;;;;0.00;0.00;;;;;15.90;100389.00;;;;5098345;28;20075;-78
2021/11/19 07:18:31;;;;;;;0.00;0.00;;;;;15.90;100385.00;;;;5093254;28;20064;-83
2021/11/19 07:21:02;;;;;;;0.00;0.00;;;;;15.90;100387.00;;;;5088791;28;20602;-83
2021/11/19 07:23:32;;;;;;;0.00;0.00;;;;;15.90;100387.00;;;;5088768;28;20139;-80
2021/11/19 07:26:02;;;;;;;0.00;0.00;;;;;15.90;100397.00;;;;5088665;28;20113;-80
2021/11/19 07:28:33;;;;;;;0.00;0.00;;;;;15.80;100397.00;;;;5087802;28;20580;-83
2021/11/19 07:31:26;;;;;;;0.00;0.00;;;;;15.80;100402.00;;;;5079245;28;20071;-85
2021/11/19 07:34:20;;;;;;;0.00;0.00;;;;;15.80;100401.00;;;;5087946;28;20044;-84
2021/11/19 07:37:02;;;;;;;0.10;0.00;;;;;15.80;100396.00;;;;5087824;28;20868;-81
2021/11/19 07:39:43;;;;;;;0.00;0.00;;;;;15.80;100396.00;;;;5089430;28;20035;-81
2021/11/19 07:42:46;;;;;;;0.00;0.00;;;;;15.80;100407.00;;;;5088558;28;20135;-84
2021/11/19 07:45:18;;;;;;;0.00;0.00;;;;;15.80;100412.00;;;;5087836;28;20507;-83
2021/11/19 07:47:58;;;;;;;0.00;0.00;;;;;15.80;100423.00;;;;5088340;28;20135;-87
2021/11/19 07:50:28;;;;;;;0.00;0.00;;;;;15.80;100418.00;;;;5088733;28;20075;-85
2021/11/19 07:52:57;;;;;;;0.00;0.00;;;;;15.80;100424.00;;;;5088623;28;20061;-83
2021/11/19 07:55:28;;;;;;;0.00;0.00;;;;;15.80;100424.00;;;;5088990;28;20054;-84
2021/11/19 07:57:58;;;;;;;0.00;0.00;;;;;15.70;100417.00;;;;5088832;28;20403;-85
2021/11/19 08:00:34;;;;;;;0.00;0.00;;;;;15.70;100431.00;;;;5071595;28;20605;-81
2021/11/19 08:03:09;;;;;;;0.00;0.00;;;;;15.70;100431.00;;;;5087991;28;20164;-85
2021/11/19 08:05:43;;;;;;;0.00;0.00;;;;;15.70;100436.00;;;;5088206;28;20055;-84
2021/11/19 08:08:20;;;;;;;0.00;0.00;;;;;15.70;100442.00;;;;5087315;28;20427;-82
2021/11/19 08:11:06;;;;;;;0.00;0.00;;;;;15.70;100438.00;;;;5087660;28;20059;-82
2021/11/19 08:13:37;;;;;;;0.00;0.00;;;;;15.70;100442.00;;;;5087662;28;20047;-82
2021/11/19 08:16:07;;;;;;;0.00;0.00;;;;;15.80;100460.00;;;;5087798;28;20097;-83
2021/11/19 08:19:06;;;;;;;0.00;0.00;;;;;15.80;100467.00;;;;5080222;28;20056;-82
2021/11/19 08:21:36;;;;;;;0.00;0.00;;;;;15.80;100454.00;;;;5087715;28;20048;-81
2021/11/19 08:24:06;;;;;;;0.00;0.00;;;;;15.80;100448.00;;;;5087651;28;20036;-84
2021/11/19 08:26:43;;;;;;;0.00;0.00;;;;;15.80;100461.00;;;;5087115;28;20155;-84
2021/11/19 08:29:23;;;;;;;0.00;0.00;;;;;15.80;100457.00;;;;5071923;28;20064;-83
2021/11/19 08:31:54;;;;;;;0.38;0.13;;;;;15.80;100462.00;;;;5088234;28;20060;-84
2021/11/19 08:34:25;;;;;;;0.00;0.00;;;;;15.80;100440.00;;;;5088671;28;20134;-85
2021/11/19 08:36:55;;;;;;;2.08;1.10;;;;;15.80;100460.00;;;;5087258;28;20055;-81
2021/11/19 08:39:26;;;;;;;0.00;0.00;;;;;15.80;100474.00;;;;5088366;28;20692;-83
2021/11/19 08:41:56;;;;;;;0.00;0.00;;;;;15.80;100463.00;;;;5088878;28;20044;-84
2021/11/19 08:44:27;;;;;;;0.00;0.00;;;;;15.80;100455.00;;;;5088375;28;20846;-80
2021/11/19 08:47:19;;;;;;;0.00;0.00;;;;;15.90;100462.00;;;;5088274;28;20071;-82
2021/11/19 08:49:49;;;;;;;0.00;0.00;;;;;15.80;100474.00;;;;5086623;28;20066;-83
2021/11/19 08:52:20;;;;;;;0.00;0.00;;;;;15.90;100461.00;;;;5088721;28;20056;-82
2021/11/19 08:54:50;;;;;;;0.00;0.00;;;;;15.90;100484.00;;;;5088563;28;20083;-79
2021/11/19 08:57:23;;;;;;;0.00;0.00;;;;;15.90;100476.00;;;;5091774;28;20721;-80
2021/11/19 08:59:54;;;;;;;0.00;0.00;;;;;15.90;100486.00;;;;5088624;28;20058;-82
2021/11/19 09:02:24;;;;;;;;;;;;;15.90;100483.00;;;;5089325;28;20047;-79
2021/11/19 09:05:05;;;;;;;0.00;0.00;;;;;16.00;100485.00;;;;5087142;28;20645;-83
2021/11/19 09:07:36;;;;;;;0.00;0.00;;;;;16.00;100499.00;;;;5086948;28;20640;-85
2021/11/19 09:10:12;;;;;;;1.02;0.95;;;;;16.20;100496.00;;;;5088331;28;20063;-83
2021/11/19 09:12:44;;;;;;;0.00;0.00;;;;;16.30;100498.00;;;;5087750;28;20044;-79
2021/11/19 09:15:17;;;;;;;0.00;0.00;;;;;16.30;100505.00;;;;5088729;28;20574;-79
2021/11/19 09:17:49;;;;;;;0.00;0.00;;;;;16.30;100510.00;;;;5088094;28;20732;-80
2021/11/19 09:20:41;;;;;;;0.00;0.00;;;;;16.30;100513.00;;;;5087666;28;20044;-84
2021/11/19 09:23:26;;;;;;;0.00;0.00;;;;;16.30;100511.00;;;;5087944;28;20040;-81
2021/11/19 09:25:59;;;;;;;0.10;0.10;;;;;16.30;100515.00;;;;5086794;28;20047;-84
2021/11/19 09:28:30;;;;;;;0.00;0.00;;;;;16.40;100514.00;;;;5088183;28;20044;-80
2021/11/19 09:31:02;;;;;;;0.00;0.00;;;;;16.50;100523.00;;;;5085811;28;20597;-82
2021/11/19 09:33:33;;;;;;;0.00;0.00;;;;;16.50;100498.00;;;;5087173;28;20476;-79
2021/11/19 09:36:05;;;;;;;0.00;0.00;;;;;16.70;100512.00;;;;5087493;28;20044;-81
2021/11/19 09:38:35;;;;;;;0.00;0.00;;;;;16.80;100510.00;;;;5086716;28;20048;-78
2021/11/19 09:41:25;;;;;;;0.20;0.20;;;;;17.00;100533.00;;;;5086319;28;20147;-81
2021/11/19 09:44:22;;;;;;;0.00;0.00;;;;;17.00;100536.00;;;;5088041;28;20042;-79
2021/11/19 09:47:19;;;;;;;0.00;0.00;;;;;17.10;100540.00;;;;5086499;28;20085;-80
2021/11/19 09:50:08;;;;;;;0.00;0.00;;;;;17.20;100542.00;;;;5087824;28;20067;-86
2021/11/19 09:52:58;;;;;;;0.00;0.00;;;;;17.40;100524.00;;;;5086843;28;20441;-78
2021/11/19 09:55:56;;;;;;;0.00;0.00;;;;;17.50;100533.00;;;;5087483;28;20048;-82
2021/11/19 09:58:32;;;;;;;0.00;0.00;;;;;17.50;100533.00;;;;5086888;28;20146;-80
2021/11/19 10:01:39;;;;;;;0.00;0.00;;;;;17.70;100537.00;;;;5092142;28;20139;-77
2021/11/19 10:04:34;;;;;;;0.00;0.00;;;;;17.70;100546.00;;;;5089436;28;20419;-80
2021/11/19 10:07:07;;;;;;;0.00;0.00;;;;;17.70;100563.00;;;;5087527;28;20047;-83
2021/11/19 10:09:59;;;;;;;0.00;0.00;;;;;17.60;100570.00;;;;5086953;28;20411;-84
2021/11/19 10:12:36;;;;;;;0.08;0.08;;;;;17.50;100561.00;;;;5084299;28;20110;-80
2021/11/19 10:15:48;;;;;;;0.00;0.00;;;;;17.40;100555.00;;;;5086827;28;20094;-85
2021/11/19 10:18:31;;;;;;;0.08;0.05;;;;;17.50;100571.00;;;;5078300;28;20610;-82
2021/11/19 10:21:10;;;;;;;0.00;0.00;;;;;17.50;100562.00;;;;5085866;28;20429;-80
2021/11/19 10:24:20;;;;;;;0.00;0.00;;;;;17.60;100573.00;;;;5087387;28;20066;-84
2021/11/19 10:26:50;;;;;;;0.00;0.00;;;;;17.60;100567.00;;;;5075835;28;20160;-83
2021/11/19 10:29:36;;;;;;;0.00;0.00;;;;;17.70;100579.00;;;;5087215;28;20479;-82
2021/11/19 10:32:09;;;;;;;0.00;0.00;;;;;17.80;100570.00;;;;5085490;28;20094;-85
2021/11/19 10:35:14;;;;;;;0.03;0.03;;;;;17.90;100574.00;;;;5085574;28;20126;-84
2021/11/19 10:38:12;;;;;;;0.00;0.00;;;;;18.00;100599.00;;;;5085725;28;20052;-82
2021/11/19 10:41:19;;;;;;;0.00;0.00;;;;;18.10;100601.00;;;;5087123;28;20072;-84
2021/11/19 10:44:07;;;;;;;0.00;0.00;;;;;18.20;100606.00;;;;5087022;28;20044;-84
2021/11/19 10:47:17;;;;;;;0.00;0.00;;;;;18.30;100598.00;;;;5086442;28;20600;-81
2021/11/19 10:50:08;;;;;;;0.47;0.38;;;;;18.30;100607.00;;;;5086685;28;20047;-82
2021/11/19 10:52:50;;;;;;;0.00;0.00;;;;;18.40;100608.00;;;;5085179;28;20089;-86
2021/11/19 10:55:45;;;;;;;;;;;;;18.40;100614.00;;;;5087262;28;20384;-82
2021/11/19 10:58:30;;;;;;;0.00;0.00;;;;;18.50;100619.00;;;;5078247;28;19924;-83
2021/11/19 11:01:00;;;;;;;0.15;0.00;;;;;18.50;100623.00;;;;5086489;28;20444;-81
2021/11/19 11:03:35;;;;;;;0.00;0.00;;;;;18.40;100625.00;;;;5089505;28;20043;-85
2021/11/19 11:06:10;;;;;;;8.52;1.27;;;;;18.40;100634.00;;;;5090387;28;20047;-83
2021/11/19 11:08:44;;;;;;;0.00;0.00;;;;;18.40;100627.00;;;;5090700;28;20065;-81
2021/11/19 11:11:21;;;;;;;0.00;0.00;;;;;18.50;100637.00;;;;5089678;28;20131;-86
2021/11/19 11:13:56;;;;;;;0.00;0.00;;;;;18.70;100651.00;;;;5088941;28;20085;-84
2021/11/19 11:16:30;;;;;;;0.00;0.00;;;;;18.80;100655.00;;;;5090606;28;20050;-79
2021/11/19 11:19:13;;;;;;;1.45;0.25;;;;;19.00;100646.00;;;;5089624;28;20529;-82
2021/11/19 11:22:01;;;;;;;0.20;0.15;;;;;19.10;100638.00;;;;5090066;28;20058;-79
2021/11/19 11:24:53;;;;;;;0.00;0.00;;;;;19.10;100652.00;;;;5091660;28;20098;-81
2021/11/19 11:27:26;;;;;;;0.00;0.00;;;;;19.20;100645.00;;;;5091346;28;20119;-85
2021/11/19 11:30:00;;;;;;;0.00;0.00;;;;;19.40;100627.00;;;;5090855;28;20048;-84
2021/11/19 11:32:35;;;;;;;0.20;0.10;;;;;19.40;100649.00;;;;5089590;28;20052;-85
2021/11/19 11:35:28;;;;;;;1.00;0.45;;;;;19.30;100638.00;;;;5089029;28;20482;-80
2021/11/19 11:38:08;;;;;;;0.22;0.03;;;;;19.20;100650.00;;;;5089875;28;20146;-85
2021/11/19 11:41:15;;;;;;;0.25;0.20;;;;;19.00;100674.00;;;;5087762;28;20071;-79
2021/11/19 11:44:12;;;;;;;0.00;0.00;;;;;19.00;100654.00;;;;5088652;28;20062;-85
2021/11/19 11:47:19;;;;;;;0.00;0.00;;;;;19.10;100661.00;;;;5090566;28;20145;-82
2021/11/19 11:49:56;;;;;;;0.00;0.00;;;;;19.20;100654.00;;;;5085158;28;20513;-79
2021/11/19 11:52:54;;;;;;;0.00;0.00;;;;;19.20;100660.00;;;;5071730;28;20422;-82
2021/11/19 11:55:24;;;;;;;0.00;0.00;;;;;19.30;100655.00;;;;5088354;28;20052;-79
2021/11/19 11:57:53;;;;;;;0.20;0.20;;;;;19.20;100656.00;;;;5088823;28;20043;-82
2021/11/19 12:00:26;;;;;;;0.00;0.00;;;;;19.10;100662.00;;;;5088021;28;20040;-79
2021/11/19 12:03:17;;;;;;;0.00;0.00;;;;;19.20;100671.00;;;;5089733;28;20046;-77
2021/11/19 12:05:51;;;;;;;0.00;0.00;;;;;19.10;100668.00;;;;5087506;28;20511;-84
2021/11/19 12:08:21;;;;;;;0.00;0.00;;;;;19.20;100668.00;;;;5089118;28;20067;-78
2021/11/19 12:11:02;;;;;;;0.00;0.00;;;;;19.40;100649.00;;;;5088284;28;20067;-81
2021/11/19 12:13:31;;;;;;;0.00;0.00;;;;;20.00;100641.00;;;;5087474;28;20044;-82
2021/11/19 12:16:14;;;;;;;0.10;0.10;;;;;20.70;100645.00;;;;5088635;28;20067;-84
2021/11/19 12:19:01;;;;;;;0.40;0.10;;;;;21.20;100629.00;;;;5089182;28;20530;-81
2021/11/19 12:22:15;;;;;;;0.17;0.08;;;;;21.80;100631.00;;;;5089032;28;20032;-83
2021/11/19 12:24:45;;;;;;;2.72;0.32;;;;;21.90;100642.00;;;;5078688;28;20052;-76
2021/11/19 12:27:26;;;;;;;0.17;0.17;;;;;21.50;100645.00;;;;5088913;28;20051;-76
2021/11/19 12:30:07;;;;;;;0.00;0.00;;;;;21.30;100652.00;;;;5088808;28;20954;-85
2021/11/19 12:32:40;;;;;;;0.00;0.00;;;;;21.00;100651.00;;;;5088917;28;20096;-83
2021/11/19 12:35:39;;;;;;;0.13;0.13;;;;;20.70;100661.00;;;;5090196;28;20054;-85
2021/11/19 12:38:25;;;;;;;0.00;0.00;;;;;20.60;100651.00;;;;5089967;28;20040;-85
2021/11/19 12:41:02;;;;;;;10.77;0.80;;;;;20.70;100653.00;;;;5092362;28;20480;-79
2021/11/19 12:43:41;;;;;;;0.00;0.00;;;;;21.00;100662.00;;;;5094966;28;20044;-80
2021/11/19 12:46:47;;;;;;;0.00;0.00;;;;;21.00;100655.00;;;;5087920;28;20557;-80
2021/11/19 12:49:22;;;;;;;3.75;0.73;;;;;20.60;100663.00;;;;5085013;28;20110;-81
2021/11/19 12:52:09;;;;;;;0.82;0.47;;;;;20.40;100657.00;;;;5088007;28;20049;-86
2021/11/19 12:54:58;;;;;;;0.00;0.00;;;;;20.30;100662.00;;;;5086669;28;20055;-82
2021/11/19 12:57:44;;;;;;;4.03;0.40;;;;;20.40;100672.00;;;;5087671;28;20036;-81
2021/11/19 13:00:30;;;;;;;0.47;0.47;;;;;20.20;100667.00;;;;5088215;28;20333;-77
2021/11/19 13:03:32;;;;;;;7.28;3.72;;;;;20.70;100679.00;;;;5087943;28;20457;-79